Data for 12/07/2015

Time Sea-Level Adjusted Pressure Absolute Pressure Temperature Relative Humidity Dew Point   
(mb) (inHg) (mb) (inHg) (C) (F) (%) (C) (F)
00:05 1020 30.12 850 25.1 2.9 37.2 46 -7.6 18.3
00:10 1021 30.15 850 25.1 2.8 37.1 46 -7.7 18.2
00:15 1021 30.15 850 25.1 2.8 37.1 47 -7.6 18.4
00:20 1021 30.15 850 25.1 2.9 37.2 43 -8.4 16.9
00:25 1021 30.15 850 25.1 3.2 37.7 45 -7.6 18.3
00:30 1021 30.15 850 25.1 3.2 37.8 39 -9.3 15.2
00:35 1021 30.15 850 25.1 4.1 39.4 39 -8.5 16.6
00:40 1021 30.15 850 25.1 4.2 39.6 39 -8.5 16.8
00:45 1021 30.15 850 25.1 4.1 39.4 40 -8.4 16.9
00:50 1021 30.15 850 25.1 3.8 38.9 43 -7.7 18.1
00:55 1021 30.15 850 25.1 2.5 36.5 46 -8.1 17.5
01:00 1021 30.15 850 25.1 2 35.7 47 -8 17.5
01:05 1021 30.15 850 25.1 1.8 35.3 47 -8.3 17
01:10 1021 30.15 850 25.1 2 35.6 46 -8.5 16.7
01:15 1021 30.15 850 25.1 2.3 36.2 45 -8.4 16.9
01:20 1021 30.15 850 25.1 2.4 36.3 45 -8.3 17.1
01:25 1021 30.15 850 25.1 2.3 36.2 45 -8.4 16.8
01:30 1021 30.15 850 25.1 2.7 36.9 42 -8.8 16.1
01:35 1020 30.12 850 25.1 2.1 35.8 47 -8 17.6
01:40 1020 30.12 850 25.1 1.1 34 51 -7.9 17.8
01:45 1020 30.12 850 25.1 0.5 32.8 51 -8.5 16.7
01:50 1020 30.12 850 25.1 0.7 33.3 52 -8.1 17.5
01:55 1020 30.12 850 25.1 0.5 32.9 53 -7.9 17.8
02:00 1020 30.12 849 25.07 0.6 33.1 52 -8.1 17.3
02:05 1020 30.12 849 25.07 0.8 33.5 49 -8.8 16.2
02:10 1020 30.12 849 25.07 1.4 34.5 49 -8.2 17.2
02:15 1020 30.12 849 25.07 1.2 34.2 51 -7.9 17.7
02:20 1020 30.12 849 25.07 1.2 34.2 51 -7.7 18.1
02:25 1020 30.12 849 25.07 1.1 34 50 -8.1 17.3
02:30 1020 30.12 849 25.07 0.9 33.6 54 -7.3 18.8
02:35 1020 30.12 849 25.07 0.1 32.2 55 -8 17.6
02:40 1020 30.12 849 25.07 0.5 33 51 -8.6 16.6
02:45 1020 30.12 849 25.07 1.2 34.2 50 -8.2 17.3
02:50 1020 30.12 849 25.07 1.1 34 49 -8.4 16.8
02:55 1020 30.12 849 25.07 1.3 34.3 49 -8.2 17.2
03:00 1020 30.12 849 25.07 1.4 34.6 48 -8.4 16.9
03:05 1020 30.12 849 25.07 1.6 34.9 43 -9.7 14.6
03:10 1020 30.12 849 25.07 3.1 37.5 38 -9.9 14.2
03:15 1020 30.12 849 25.07 3.6 38.5 42 -8.3 17.1
03:20 1020 30.12 849 25.07 2.8 37 46 -7.8 17.9
03:25 1020 30.12 849 25.07 1.3 34.4 50 -7.9 17.9
03:30 1020 30.12 849 25.07 0.7 33.3 50 -8.6 16.6
03:35 1020 30.12 849 25.07 1.1 34 48 -8.6 16.5
03:40 1020 30.12 849 25.07 1.5 34.7 48 -8.4 16.9
03:45 1020 30.12 849 25.07 1.6 34.9 47 -8.4 16.8
03:50 1020 30.12 849 25.07 1.5 34.7 49 -8 17.6
03:55 1020 30.12 849 25.07 1.2 34.1 49 -8.5 16.8
04:00 1019 30.09 849 25.07 1.6 34.9 48 -8.4 16.9
04:05 1019 30.09 849 25.07 1.2 34.2 51 -7.9 17.8
04:10 1019 30.09 849 25.07 0.6 33 52 -8.2 17.3
04:15 1019 30.09 849 25.07 0.4 32.8 52 -8.3 17.1
04:20 1019 30.09 848 25.04 0.4 32.7 52 -8.3 17.1
04:25 1019 30.09 848 25.04 0.5 32.9 51 -8.6 16.5
04:30 1019 30.09 848 25.04 0.9 33.5 50 -8.3 17.1
04:35 1019 30.09 848 25.04 1 33.9 50 -8.1 17.4
04:40 1019 30.09 848 25.04 0.9 33.6 51 -8.1 17.3
04:45 1019 30.09 848 25.04 1.1 34.1 47 -8.8 16.1
04:50 1019 30.09 848 25.04 1.8 35.3 46 -8.5 16.8
04:55 1018 30.06 848 25.04 2.1 35.7 45 -8.6 16.5
05:00 1018 30.06 848 25.04 2.1 35.9 46 -8.3 17
05:05 1018 30.06 847 25.01 2 35.5 47 -8.1 17.4
05:10 1018 30.06 847 25.01 1.8 35.2 48 -8.2 17.2
05:15 1018 30.06 847 25.01 1.7 35.1 47 -8.4 16.8
05:20 1018 30.06 847 25.01 1.9 35.4 47 -8.1 17.3
05:25 1018 30.06 847 25.01 2.3 36.2 46 -8.2 17.2
05:30 1018 30.06 847 25.01 2.4 36.4 46 -8.1 17.4
05:35 1018 30.06 847 25.01 2.4 36.4 48 -7.5 18.5
05:40 1018 30.06 847 25.01 2 35.6 51 -7 19.4
05:45 1018 30.06 847 25.01 1.7 35.1 51 -7.3 18.8
05:50 1018 30.06 847 25.01 2.5 36.5 46 -8 17.7
05:55 1018 30.06 847 25.01 2.3 36.1 49 -7.4 18.7
06:00 1018 30.06 847 25.01 2.6 36.6 46 -7.8 17.9
06:05 1018 30.06 847 25.01 3.3 37.9 46 -7.4 18.7
06:10 1018 30.06 847 25.01 3.8 38.8 46 -6.9 19.6
06:15 1018 30.06 847 25.01 3.9 39 45 -7 19.4
06:20 1018 30.06 847 25.01 4.2 39.6 45 -6.7 19.9
06:25 1017 30.03 847 25.01 4.4 39.9 44 -6.8 19.7
06:30 1017 30.03 847 25.01 4.5 40.1 46 -6.2 20.8
06:35 1017 30.03 846 24.98 4.3 39.8 46 -6.3 20.7
06:40 1017 30.03 846 24.98 4.3 39.8 47 -6 21.2
06:45 1017 30.03 846 24.98 4.2 39.5 49 -5.7 21.8
06:50 1017 30.03 846 24.98 3.8 38.9 50 -5.7 21.8
06:55 1017 30.03 846 24.98 3.7 38.7 49 -5.9 21.4
07:00 1016 30 846 24.98 3.5 38.3 52 -5.4 22.3
07:05 1016 30 846 24.98 3.9 39 50 -5.7 21.8
07:10 1016 30 846 24.98 4.6 40.2 48 -5.5 22
07:15 1016 30 846 24.98 4.8 40.6 48 -5.4 22.3
07:20 1016 30 845 24.95 4.8 40.7 47 -5.4 22.3
07:25 1016 30 845 24.95 4.8 40.7 48 -5.2 22.6
07:30 1016 30 845 24.95 4.6 40.3 49 -5.1 22.9
07:35 1016 30 845 24.95 4.6 40.3 48 -5.5 22.2
07:40 1016 30 845 24.95 4.7 40.5 47 -5.6 21.9
07:45 1016 30 845 24.95 5 41 45 -5.9 21.5
07:50 1016 30 845 24.95 5.4 41.6 45 -5.6 21.9
07:55 1016 30 845 24.95 5.5 41.9 44 -5.9 21.4
08:00 1016 30 845 24.95 5.5 42 45 -5.6 21.9
08:05 1016 30 845 24.95 5.4 41.8 45 -5.5 22.1
08:10 1016 30 845 24.95 5.6 42.1 44 -5.8 21.6
08:15 1016 30 845 24.95 5.6 42.1 45 -5.3 22.5
08:20 1016 30 845 24.95 5.1 41.2 47 -5.2 22.7
08:25 1016 30 845 24.95 4.2 39.5 50 -5.4 22.3
08:30 1016 30 845 24.95 3.2 37.7 52 -5.8 21.6
08:35 1016 30 845 24.95 3.3 38 50 -6.1 21.1
08:40 1016 30 845 24.95 3.7 38.6 49 -6 21.2
08:45 1016 30 845 24.95 3.9 39.1 49 -5.7 21.7
08:50 1016 30 845 24.95 3.9 39 50 -5.7 21.8
08:55 1016 30 845 24.95 4.4 40 47 -5.9 21.4
09:00 1016 30 845 24.95 5.4 41.7 45 -5.6 21.9
09:05 1016 30 845 24.95 5.9 42.5 44 -5.5 22.2
09:10 1016 30 845 24.95 5.9 42.6 46 -5 23.1
09:15 1016 30 845 24.95 5.7 42.2 47 -4.7 23.5
09:20 1016 30 845 24.95 5.8 42.4 46 -5 23.1
09:25 1016 30 845 24.95 5.9 42.6 45 -5.2 22.6
09:30 1015 29.97 845 24.95 6.2 43.2 43 -5.4 22.3
09:35 1015 29.97 844 24.92 6.5 43.8 43 -5.1 22.9
09:40 1015 29.97 844 24.92 6.7 44.1 42 -5.3 22.5
09:45 1015 29.97 845 24.95 6.8 44.2 43 -4.9 23.1
09:50 1015 29.97 844 24.92 6.7 44 44 -4.8 23.3
09:55 1015 29.97 844 24.92 6.5 43.7 44 -4.9 23.2
10:00 1015 29.97 844 24.92 6.1 43 45 -4.9 23.1
10:05 1015 29.97 844 24.92 5.1 41.2 47 -5.2 22.7
10:10 1015 29.97 844 24.92 5.2 41.3 47 -5.2 22.7
10:15 1015 29.97 844 24.92 5.7 42.3 45 -5.3 22.5
10:20 1015 29.97 844 24.92 6.1 42.9 44 -5.2 22.7
10:25 1015 29.97 844 24.92 6.5 43.8 44 -4.8 23.3
10:30 1015 29.97 844 24.92 6.9 44.5 43 -4.8 23.4
10:35 1015 29.97 844 24.92 7.2 44.9 43 -4.7 23.5
10:40 1015 29.97 844 24.92 7.1 44.8 43 -4.6 23.8
10:45 1014 29.94 844 24.92 6.7 44 45 -4.3 24.2
10:50 1014 29.94 844 24.92 6.6 43.9 44 -4.9 23.2
10:55 1014 29.94 844 24.92 6.5 43.7 44 -4.8 23.4
11:00 1014 29.94 844 24.92 7.1 44.8 43 -4.6 23.6
11:05 1014 29.94 843 24.89 7.5 45.5 42 -4.6 23.8
11:10 1014 29.94 843 24.89 7.8 46 43 -4.1 24.5
11:15 1014 29.94 843 24.89 7.8 46 42 -4.3 24.3
11:20 1014 29.94 843 24.89 7.9 46.2 42 -4.3 24.3
11:25 1014 29.94 843 24.89 8.1 46.5 42 -4.1 24.5
11:30 1014 29.94 843 24.89 8 46.4 43 -3.9 24.9
11:35 1014 29.94 843 24.89 8.2 46.7 42 -3.9 24.9
11:40 1014 29.94 843 24.89 8.3 47 41 -4 24.8
11:45 1014 29.94 843 24.89 8.6 47.5 40 -4.1 24.7
11:50 1014 29.94 843 24.89 8.9 48 40 -3.8 25.2
11:55 1014 29.94 843 24.89 8.9 48 41 -3.7 25.4
12:00 1014 29.94 843 24.89 8.8 47.8 40 -3.9 24.9
12:05 1014 29.94 843 24.89 8.8 47.8 41 -3.8 25.2
12:10 1014 29.94 843 24.89 8.8 47.9 41 -3.8 25.2
12:15 1014 29.94 843 24.89 8.7 47.6 42 -3.6 25.4
12:20 1014 29.94 843 24.89 8.5 47.4 42 -3.5 25.6
12:25 1014 29.94 843 24.89 8.4 47.1 42 -3.8 25.2
12:30 1014 29.94 843 24.89 8.4 47.1 43 -3.4 26
12:35 1014 29.94 843 24.89 8.3 46.9 45 -3 26.5
12:40 1013 29.91 843 24.89 8.1 46.6 45 -3.2 26.2
12:45 1013 29.91 843 24.89 8.2 46.7 44 -3.4 25.8
12:50 1014 29.94 843 24.89 8.3 46.9 43 -3.4 25.8
12:55 1013 29.91 843 24.89 8.4 47.1 43 -3.5 25.6
13:00 1013 29.91 843 24.89 8.5 47.2 42 -3.5 25.6
13:05 1013 29.91 842 24.86 8.5 47.3 42 -3.6 25.6
13:10 1013 29.91 842 24.86 8.6 47.5 42 -3.6 25.5
13:15 1013 29.91 842 24.86 8.6 47.4 42 -3.7 25.4
13:20 1013 29.91 842 24.86 8.7 47.6 42 -3.5 25.8
13:25 1013 29.91 842 24.86 8.7 47.6 42 -3.6 25.6
13:30 1013 29.91 842 24.86 8.7 47.6 42 -3.5 25.6
13:35 1013 29.91 842 24.86 8.7 47.6 43 -3.2 26.2
13:40 1013 29.91 842 24.86 8.6 47.4 44 -3.1 26.4
13:45 1013 29.91 842 24.86 8.3 46.9 45 -2.8 26.9
13:50 1013 29.91 842 24.86 8 46.4 46 -2.9 26.7
13:55 1013 29.91 842 24.86 7.9 46.2 46 -2.9 26.8
14:00 1013 29.91 842 24.86 8 46.3 46 -2.9 26.8
14:05 1013 29.91 842 24.86 8 46.3 46 -2.8 26.9
14:10 1013 29.91 842 24.86 8 46.3 47 -2.8 27
14:15 1012 29.88 842 24.86 8 46.3 46 -2.9 26.8
14:20 1012 29.88 842 24.86 8.1 46.5 46 -2.9 26.8
14:25 1012 29.88 842 24.86 8 46.3 47 -2.8 27
14:30 1012 29.88 841 24.83 7.8 46.1 47 -2.8 26.9
14:35 1012 29.88 841 24.83 7.7 45.8 47 -2.8 27
14:40 1012 29.88 841 24.83 7.6 45.6 48 -2.7 27.1
14:45 1012 29.88 841 24.83 7.5 45.6 48 -2.8 27
14:50 1012 29.88 841 24.83 7.6 45.6 48 -2.7 27.1
14:55 1012 29.88 841 24.83 7.7 45.9 47 -2.8 27
15:00 1012 29.88 841 24.83 7.6 45.7 49 -2.5 27.5
15:05 1012 29.88 841 24.83 7.4 45.4 50 -2.4 27.7
15:10 1012 29.88 841 24.83 7.4 45.3 50 -2.4 27.8
15:15 1012 29.88 841 24.83 7.3 45.1 51 -2.3 27.9
15:20 1012 29.88 841 24.83 7.2 44.9 51 -2.2 28.1
15:25 1012 29.88 841 24.83 7.1 44.8 51 -2.3 27.8
15:30 1012 29.88 841 24.83 7.2 44.9 52 -2.1 28.2
15:35 1012 29.88 841 24.83 7.1 44.7 52 -2.1 28.3
15:40 1012 29.88 841 24.83 7 44.6 52 -2.1 28.3
15:45 1012 29.88 841 24.83 7 44.6 53 -2 28.4
15:50 1012 29.88 841 24.83 7.1 44.7 52 -2.2 28.1
15:55 1012 29.88 841 24.83 7.1 44.7 53 -1.9 28.5
16:00 1012 29.88 841 24.83 7.1 44.7 53 -1.9 28.6
16:05 1012 29.88 841 24.83 7 44.5 53 -1.9 28.6
16:10 1012 29.88 841 24.83 7 44.5 53 -1.9 28.6
16:15 1012 29.88 841 24.83 7 44.6 54 -1.7 28.9
16:20 1012 29.88 841 24.83 6.9 44.4 54 -1.7 28.9
16:25 1012 29.88 841 24.83 6.9 44.4 55 -1.6 29.1
16:30 1012 29.88 841 24.83 6.8 44.3 54 -1.7 28.9
16:35 1012 29.88 841 24.83 6.8 44.3 54 -1.7 28.9
16:40 1012 29.88 841 24.83 6.9 44.3 55 -1.6 29.1
16:45 1012 29.88 841 24.83 6.7 44.1 56 -1.5 29.3
16:50 1012 29.88 841 24.83 6.5 43.7 57 -1.5 29.4
16:55 1012 29.88 841 24.83 6.4 43.5 57 -1.5 29.2
17:00 1012 29.88 841 24.83 6.5 43.6 56 -1.6 29
17:05 1012 29.88 841 24.83 6.6 43.8 56 -1.6 29.2
17:10 1012 29.88 841 24.83 6.6 43.8 56 -1.7 29
17:15 1011 29.85 841 24.83 6.8 44.2 55 -1.6 29
17:20 1011 29.85 841 24.83 6.8 44.2 55 -1.6 29.2
17:25 1011 29.85 841 24.83 6.8 44.3 55 -1.7 29
17:30 1011 29.85 841 24.83 6.9 44.3 54 -1.7 29
17:35 1011 29.85 840 24.81 7 44.6 54 -1.5 29.2
17:40 1011 29.85 840 24.81 7 44.5 54 -1.6 29.1
17:45 1011 29.85 840 24.81 7.1 44.7 54 -1.5 29.3
17:50 1011 29.85 840 24.81 7.2 45 52 -1.9 28.5
17:55 1011 29.85 840 24.81 7.4 45.2 54 -1.4 29.5
18:00 1011 29.85 840 24.81 7 44.6 55 -1.4 29.4
18:05 1011 29.85 840 24.81 6.8 44.3 55 -1.6 29.1
18:10 1011 29.85 840 24.81 6.9 44.5 54 -1.8 28.8
18:15 1011 29.85 840 24.81 7 44.6 54 -1.7 29
18:20 1011 29.85 840 24.81 7 44.5 54 -1.7 29
18:25 1011 29.85 840 24.81 6.8 44.3 55 -1.6 29.1
18:30 1011 29.85 840 24.81 6.7 44 55 -1.8 28.8
18:35 1011 29.85 840 24.81 6.8 44.3 54 -1.9 28.6
18:40 1011 29.85 840 24.81 7 44.5 53 -1.9 28.5
18:45 1011 29.85 840 24.81 7 44.7 53 -1.9 28.5
18:50 1011 29.85 840 24.81 7 44.7 53 -1.9 28.6
18:55 1011 29.85 840 24.81 7 44.6 54 -1.8 28.8
19:00 1011 29.85 840 24.81 7 44.6 53 -1.9 28.6
19:05 1011 29.85 840 24.81 7 44.6 53 -1.8 28.7
19:10 1011 29.85 840 24.81 7 44.7 53 -1.8 28.7
19:15 1011 29.85 840 24.81 7 44.6 54 -1.6 29
19:20 1011 29.85 840 24.81 7 44.7 53 -1.9 28.5
19:25 1011 29.85 840 24.81 7.2 45 53 -1.7 28.9
19:30 1011 29.85 840 24.81 7.3 45.1 53 -1.8 28.8
19:35 1010 29.83 840 24.81 7.2 45 54 -1.5 29.3
19:40 1010 29.83 840 24.81 7.1 44.7 54 -1.5 29.3
19:45 1010 29.83 840 24.81 7 44.6 54 -1.8 28.8
19:50 1010 29.83 840 24.81 6.9 44.5 55 -1.6 29.2
19:55 1010 29.83 840 24.81 6.8 44.3 55 -1.6 29.2
20:00 1010 29.83 840 24.81 6.8 44.3 54 -1.7 29
20:05 1010 29.83 840 24.81 7.1 44.7 54 -1.6 29.1
20:10 1010 29.83 840 24.81 7.2 45 54 -1.5 29.4
20:15 1010 29.83 840 24.81 7.5 45.4 54 -1.3 29.7
20:20 1010 29.83 839 24.78 7.8 46 53 -1.1 30
20:25 1010 29.83 839 24.78 7.8 46.1 54 -0.9 30.4
20:30 1010 29.83 839 24.78 7.7 45.8 55 -0.8 30.5
20:35 1010 29.83 839 24.78 7.6 45.6 55 -0.8 30.5
20:40 1010 29.83 839 24.78 7.5 45.5 55 -0.8 30.5
20:45 1010 29.83 839 24.78 7.2 45 56 -1 30.2
20:50 1010 29.83 839 24.78 6.9 44.4 57 -1 30.2
20:55 1010 29.83 839 24.78 6.9 44.3 57 -1.2 29.9
21:00 1010 29.83 839 24.78 7 44.6 56 -1 30.2
21:05 1009 29.8 839 24.78 7.2 44.9 55 -1.3 29.7
21:10 1010 29.83 839 24.78 7.4 45.4 54 -1.3 29.7
21:15 1010 29.83 839 24.78 7.7 45.8 54 -1.1 30
21:20 1010 29.83 839 24.78 7.7 45.9 52 -1.5 29.2
21:25 1010 29.83 839 24.78 8.5 47.2 49 -1.5 29.3
21:30 1010 29.83 839 24.78 8.6 47.5 50 -1.3 29.7
21:35 1010 29.83 839 24.78 8.8 47.8 47 -1.8 28.7
21:40 1010 29.83 839 24.78 9.2 48.5 47 -1.5 29.4
21:45 1010 29.83 839 24.78 9.1 48.3 48 -1.3 29.6
21:50 1010 29.83 839 24.78 8.9 47.9 49 -1.3 29.7
21:55 1010 29.83 839 24.78 8.8 47.8 47 -1.8 28.7
22:00 1010 29.83 839 24.78 9.1 48.3 48 -1.5 29.4
22:05 1009 29.8 839 24.78 8.9 48.1 47 -1.6 29.1
22:10 1009 29.8 839 24.78 9 48.2 47 -1.6 29.1
22:15 1010 29.83 839 24.78 8.9 48.1 48 -1.5 29.3
22:20 1010 29.83 839 24.78 8.8 47.8 48 -1.7 28.9
22:25 1010 29.83 839 24.78 8.8 47.8 48 -1.7 29
22:30 1009 29.8 839 24.78 8.8 47.9 47 -1.8 28.8
22:35 1009 29.8 839 24.78 8.8 47.9 47 -1.7 28.9
22:40 1010 29.83 839 24.78 8.9 47.9 47 -1.7 28.9
22:45 1009 29.8 839 24.78 8.9 48 47 -1.9 28.6
22:50 1009 29.8 839 24.78 9 48.2 46 -1.9 28.6
22:55 1009 29.8 839 24.78 9 48.3 46 -1.9 28.7
23:00 1009 29.8 839 24.78 8.9 48 48 -1.6 29.1
23:05 1009 29.8 838 24.75 8.8 47.9 46 -2.1 28.2
23:10 1009 29.8 839 24.78 9.1 48.3 45 -2.3 27.8
23:15 1009 29.8 839 24.78 9.3 48.8 45 -2 28.5
23:20 1010 29.83 839 24.78 9.1 48.3 46 -1.9 28.6
23:25 1010 29.83 839 24.78 9.1 48.4 46 -1.8 28.8
23:30 1010 29.83 839 24.78 9 48.3 47 -1.6 29
23:35 1010 29.83 839 24.78 9 48.1 48 -1.5 29.4
23:40 1010 29.83 839 24.78 8.8 47.8 48 -1.5 29.3
23:45 1010 29.83 839 24.78 8.8 47.8 49 -1.4 29.5
23:50 1010 29.83 839 24.78 8.7 47.6 49 -1.3 29.6
23:55 1010 29.83 839 24.78 8.6 47.5 50 -1.3 29.7
24:00 1010 29.83 840 24.81 8.6 47.5 50 -1.3 29.7